sensor_id;sensor_type;location;lat;lon;timestamp;P1;durP1;ratioP1;P2;durP2;ratioP2
72547;SDS011;60570;50.848;6.776;2023-02-18T00:00:50;5.83;;;2.80;;
72547;SDS011;60570;50.848;6.776;2023-02-18T00:01:51;4.35;;;2.70;;
72547;SDS011;60570;50.848;6.776;2023-02-18T00:02:51;4.40;;;2.77;;
72547;SDS011;60570;50.848;6.776;2023-02-18T00:03:55;4.80;;;2.72;;
72547;SDS011;60570;50.848;6.776;2023-02-18T00:04:56;5.30;;;2.90;;
72547;SDS011;60570;50.848;6.776;2023-02-18T00:05:57;5.83;;;3.00;;
72547;SDS011;60570;50.848;6.776;2023-02-18T00:06:58;5.22;;;2.90;;
72547;SDS011;60570;50.848;6.776;2023-02-18T00:07:58;5.68;;;2.78;;
72547;SDS011;60570;50.848;6.776;2023-02-18T00:08:59;4.50;;;2.80;;
72547;SDS011;60570;50.848;6.776;2023-02-18T00:10:01;5.03;;;3.00;;
72547;SDS011;60570;50.848;6.776;2023-02-18T00:11:04;4.63;;;2.83;;
72547;SDS011;60570;50.848;6.776;2023-02-18T00:12:05;5.00;;;3.00;;
72547;SDS011;60570;50.848;6.776;2023-02-18T00:13:06;5.10;;;2.93;;
72547;SDS011;60570;50.848;6.776;2023-02-18T00:14:10;4.78;;;2.80;;
72547;SDS011;60570;50.848;6.776;2023-02-18T00:15:12;6.35;;;2.85;;
72547;SDS011;60570;50.848;6.776;2023-02-18T00:16:13;5.10;;;2.70;;
72547;SDS011;60570;50.848;6.776;2023-02-18T00:17:13;5.40;;;2.90;;
72547;SDS011;60570;50.848;6.776;2023-02-18T00:18:14;5.83;;;3.00;;
72547;SDS011;60570;50.848;6.776;2023-02-18T00:19:16;5.97;;;3.08;;
72547;SDS011;60570;50.848;6.776;2023-02-18T00:20:17;5.00;;;2.90;;
72547;SDS011;60570;50.848;6.776;2023-02-18T00:21:18;4.55;;;2.63;;
72547;SDS011;60570;50.848;6.776;2023-02-18T00:22:18;4.70;;;2.73;;
72547;SDS011;60570;50.848;6.776;2023-02-18T00:23:19;4.38;;;2.70;;
72547;SDS011;60570;50.848;6.776;2023-02-18T00:24:19;5.10;;;2.90;;
72547;SDS011;60570;50.848;6.776;2023-02-18T00:25:21;4.20;;;2.60;;
72547;SDS011;60570;50.848;6.776;2023-02-18T00:26:21;4.63;;;2.63;;
72547;SDS011;60570;50.848;6.776;2023-02-18T00:27:22;4.65;;;2.70;;
72547;SDS011;60570;50.848;6.776;2023-02-18T00:28:23;5.13;;;2.60;;
72547;SDS011;60570;50.848;6.776;2023-02-18T00:29:23;4.43;;;2.67;;
72547;SDS011;60570;50.848;6.776;2023-02-18T00:30:24;4.80;;;2.77;;
72547;SDS011;60570;50.848;6.776;2023-02-18T00:31:31;4.13;;;2.63;;
72547;SDS011;60570;50.848;6.776;2023-02-18T00:32:33;4.95;;;2.70;;
72547;SDS011;60570;50.848;6.776;2023-02-18T00:33:34;5.07;;;2.88;;
72547;SDS011;60570;50.848;6.776;2023-02-18T00:34:36;4.25;;;2.65;;
72547;SDS011;60570;50.848;6.776;2023-02-18T00:35:36;4.50;;;2.60;;
72547;SDS011;60570;50.848;6.776;2023-02-18T00:36:36;4.80;;;2.83;;
72547;SDS011;60570;50.848;6.776;2023-02-18T00:37:37;4.10;;;2.67;;
72547;SDS011;60570;50.848;6.776;2023-02-18T00:38:37;5.40;;;2.60;;
72547;SDS011;60570;50.848;6.776;2023-02-18T00:39:38;5.03;;;2.95;;
72547;SDS011;60570;50.848;6.776;2023-02-18T00:40:39;4.77;;;2.80;;
72547;SDS011;60570;50.848;6.776;2023-02-18T00:41:41;4.38;;;2.50;;
72547;SDS011;60570;50.848;6.776;2023-02-18T00:42:42;4.90;;;2.70;;
72547;SDS011;60570;50.848;6.776;2023-02-18T00:43:42;5.13;;;2.60;;
72547;SDS011;60570;50.848;6.776;2023-02-18T00:44:43;4.53;;;2.65;;
72547;SDS011;60570;50.848;6.776;2023-02-18T00:45:44;4.85;;;2.60;;
72547;SDS011;60570;50.848;6.776;2023-02-18T00:46:44;5.00;;;2.47;;
72547;SDS011;60570;50.848;6.776;2023-02-18T00:47:47;4.75;;;2.70;;
72547;SDS011;60570;50.848;6.776;2023-02-18T00:48:48;4.70;;;2.80;;
72547;SDS011;60570;50.848;6.776;2023-02-18T00:49:48;4.70;;;2.50;;
72547;SDS011;60570;50.848;6.776;2023-02-18T00:50:48;4.22;;;2.60;;
72547;SDS011;60570;50.848;6.776;2023-02-18T00:51:49;5.30;;;2.80;;
72547;SDS011;60570;50.848;6.776;2023-02-18T00:52:49;4.40;;;2.45;;
72547;SDS011;60570;50.848;6.776;2023-02-18T00:53:50;5.50;;;2.50;;
72547;SDS011;60570;50.848;6.776;2023-02-18T00:54:50;4.32;;;2.47;;
72547;SDS011;60570;50.848;6.776;2023-02-18T00:55:51;4.60;;;2.40;;
72547;SDS011;60570;50.848;6.776;2023-02-18T00:56:51;4.35;;;2.45;;
72547;SDS011;60570;50.848;6.776;2023-02-18T00:57:52;5.07;;;2.83;;
72547;SDS011;60570;50.848;6.776;2023-02-18T00:58:52;4.93;;;2.63;;
72547;SDS011;60570;50.848;6.776;2023-02-18T00:59:53;4.80;;;2.40;;
72547;SDS011;60570;50.848;6.776;2023-02-18T01:00:53;4.82;;;2.55;;
72547;SDS011;60570;50.848;6.776;2023-02-18T01:01:55;4.75;;;2.70;;
72547;SDS011;60570;50.848;6.776;2023-02-18T01:02:55;4.60;;;2.60;;
72547;SDS011;60570;50.848;6.776;2023-02-18T01:03:55;4.13;;;2.43;;
72547;SDS011;60570;50.848;6.776;2023-02-18T01:04:56;4.13;;;2.50;;
72547;SDS011;60570;50.848;6.776;2023-02-18T01:05:57;4.15;;;2.35;;
72547;SDS011;60570;50.848;6.776;2023-02-18T01:06:57;4.63;;;2.58;;
72547;SDS011;60570;50.848;6.776;2023-02-18T01:07:57;4.40;;;2.50;;
72547;SDS011;60570;50.848;6.776;2023-02-18T01:08:58;4.70;;;2.55;;
72547;SDS011;60570;50.848;6.776;2023-02-18T01:09:58;4.30;;;2.63;;
72547;SDS011;60570;50.848;6.776;2023-02-18T01:10:59;5.07;;;2.70;;
72547;SDS011;60570;50.848;6.776;2023-02-18T01:12:00;4.40;;;2.63;;
72547;SDS011;60570;50.848;6.776;2023-02-18T01:13:00;4.05;;;2.25;;
72547;SDS011;60570;50.848;6.776;2023-02-18T01:14:03;4.82;;;2.60;;
72547;SDS011;60570;50.848;6.776;2023-02-18T01:15:04;4.47;;;2.57;;
72547;SDS011;60570;50.848;6.776;2023-02-18T01:16:06;4.72;;;2.60;;
72547;SDS011;60570;50.848;6.776;2023-02-18T01:17:07;4.32;;;2.60;;
72547;SDS011;60570;50.848;6.776;2023-02-18T01:18:08;4.90;;;2.85;;
72547;SDS011;60570;50.848;6.776;2023-02-18T01:19:09;4.45;;;2.53;;
72547;SDS011;60570;50.848;6.776;2023-02-18T01:20:10;4.50;;;2.50;;
72547;SDS011;60570;50.848;6.776;2023-02-18T01:21:12;4.68;;;2.75;;
72547;SDS011;60570;50.848;6.776;2023-02-18T01:22:12;4.13;;;2.50;;
72547;SDS011;60570;50.848;6.776;2023-02-18T01:23:13;4.60;;;2.60;;
72547;SDS011;60570;50.848;6.776;2023-02-18T01:24:14;3.97;;;2.42;;
72547;SDS011;60570;50.848;6.776;2023-02-18T01:25:15;4.30;;;2.58;;
72547;SDS011;60570;50.848;6.776;2023-02-18T01:26:16;4.32;;;2.58;;
72547;SDS011;60570;50.848;6.776;2023-02-18T01:27:16;4.80;;;2.47;;
72547;SDS011;60570;50.848;6.776;2023-02-18T01:28:17;4.93;;;2.50;;
72547;SDS011;60570;50.848;6.776;2023-02-18T01:29:20;4.90;;;2.60;;
72547;SDS011;60570;50.848;6.776;2023-02-18T01:30:20;4.70;;;2.50;;
72547;SDS011;60570;50.848;6.776;2023-02-18T01:31:21;4.38;;;2.38;;
72547;SDS011;60570;50.848;6.776;2023-02-18T01:32:22;4.30;;;2.50;;
72547;SDS011;60570;50.848;6.776;2023-02-18T01:33:22;3.63;;;2.30;;
72547;SDS011;60570;50.848;6.776;2023-02-18T01:34:23;4.75;;;2.47;;
72547;SDS011;60570;50.848;6.776;2023-02-18T01:35:23;5.10;;;2.87;;
72547;SDS011;60570;50.848;6.776;2023-02-18T01:36:24;5.82;;;2.55;;
72547;SDS011;60570;50.848;6.776;2023-02-18T01:37:24;5.00;;;2.57;;
72547;SDS011;60570;50.848;6.776;2023-02-18T01:38:25;4.38;;;2.50;;
72547;SDS011;60570;50.848;6.776;2023-02-18T01:39:25;4.40;;;2.50;;
72547;SDS011;60570;50.848;6.776;2023-02-18T01:40:27;4.22;;;2.20;;
72547;SDS011;60570;50.848;6.776;2023-02-18T01:41:29;4.50;;;2.45;;
72547;SDS011;60570;50.848;6.776;2023-02-18T01:42:30;4.72;;;2.40;;
72547;SDS011;60570;50.848;6.776;2023-02-18T01:43:31;3.95;;;2.28;;
72547;SDS011;60570;50.848;6.776;2023-02-18T01:44:32;5.15;;;2.45;;
72547;SDS011;60570;50.848;6.776;2023-02-18T01:46:33;4.30;;;2.30;;
72547;SDS011;60570;50.848;6.776;2023-02-18T01:47:33;4.55;;;2.40;;
72547;SDS011;60570;50.848;6.776;2023-02-18T01:48:45;4.30;;;2.57;;
72547;SDS011;60570;50.848;6.776;2023-02-18T01:49:50;4.57;;;2.42;;
72547;SDS011;60570;50.848;6.776;2023-02-18T01:50:56;4.15;;;2.33;;
72547;SDS011;60570;50.848;6.776;2023-02-18T01:52:03;4.70;;;2.50;;
72547;SDS011;60570;50.848;6.776;2023-02-18T01:53:08;4.90;;;2.80;;
72547;SDS011;60570;50.848;6.776;2023-02-18T01:54:10;5.38;;;2.30;;
72547;SDS011;60570;50.848;6.776;2023-02-18T01:55:14;5.07;;;2.60;;
72547;SDS011;60570;50.848;6.776;2023-02-18T01:56:18;4.82;;;2.25;;
72547;SDS011;60570;50.848;6.776;2023-02-18T01:57:24;4.70;;;2.40;;
72547;SDS011;60570;50.848;6.776;2023-02-18T01:58:29;4.18;;;2.30;;
72547;SDS011;60570;50.848;6.776;2023-02-18T01:59:30;4.57;;;2.40;;
72547;SDS011;60570;50.848;6.776;2023-02-18T02:00:33;3.97;;;2.47;;
72547;SDS011;60570;50.848;6.776;2023-02-18T02:01:35;4.07;;;2.28;;
72547;SDS011;60570;50.848;6.776;2023-02-18T02:02:39;4.65;;;2.40;;
72547;SDS011;60570;50.848;6.776;2023-02-18T02:03:43;4.50;;;2.47;;
72547;SDS011;60570;50.848;6.776;2023-02-18T02:04:43;4.50;;;2.27;;
72547;SDS011;60570;50.848;6.776;2023-02-18T02:05:44;4.80;;;2.47;;
72547;SDS011;60570;50.848;6.776;2023-02-18T02:06:44;4.10;;;2.40;;
72547;SDS011;60570;50.848;6.776;2023-02-18T02:07:45;4.17;;;2.33;;
72547;SDS011;60570;50.848;6.776;2023-02-18T02:08:48;4.68;;;2.47;;
72547;SDS011;60570;50.848;6.776;2023-02-18T02:09:51;4.38;;;2.38;;
72547;SDS011;60570;50.848;6.776;2023-02-18T02:11:00;4.72;;;2.42;;
72547;SDS011;60570;50.848;6.776;2023-02-18T02:12:19;3.85;;;2.17;;
72547;SDS011;60570;50.848;6.776;2023-02-18T02:13:56;4.80;;;2.53;;
72547;SDS011;60570;50.848;6.776;2023-02-18T02:16:31;4.05;;;2.20;;
72547;SDS011;60570;50.848;6.776;2023-02-18T02:18:57;4.13;;;2.15;;
72547;SDS011;60570;50.848;6.776;2023-02-18T02:28:46;4.50;;;2.00;;
72547;SDS011;60570;50.848;6.776;2023-02-18T02:31:26;3.78;;;1.90;;
72547;SDS011;60570;50.848;6.776;2023-02-18T02:34:28;3.70;;;1.92;;
72547;SDS011;60570;50.848;6.776;2023-02-18T02:35:50;4.00;;;2.17;;
72547;SDS011;60570;50.848;6.776;2023-02-18T02:37:35;3.95;;;2.10;;
72547;SDS011;60570;50.848;6.776;2023-02-18T02:38:18;4.07;;;2.05;;
72547;SDS011;60570;50.848;6.776;2023-02-18T02:40:45;3.50;;;1.88;;
72547;SDS011;60570;50.848;6.776;2023-02-18T02:43:09;3.63;;;1.90;;
72547;SDS011;60570;50.848;6.776;2023-02-18T02:45:09;3.10;;;1.65;;
72547;SDS011;60570;50.848;6.776;2023-02-18T02:45:56;2.90;;;1.55;;
72547;SDS011;60570;50.848;6.776;2023-02-18T02:47:19;2.70;;;1.40;;
72547;SDS011;60570;50.848;6.776;2023-02-18T02:49:44;2.90;;;1.50;;
72547;SDS011;60570;50.848;6.776;2023-02-18T02:50:55;3.70;;;1.80;;
72547;SDS011;60570;50.848;6.776;2023-02-18T02:52:15;3.28;;;1.70;;
72547;SDS011;60570;50.848;6.776;2023-02-18T02:53:22;3.20;;;1.50;;
72547;SDS011;60570;50.848;6.776;2023-02-18T02:54:26;3.77;;;1.60;;
72547;SDS011;60570;50.848;6.776;2023-02-18T02:55:27;3.00;;;1.42;;
72547;SDS011;60570;50.848;6.776;2023-02-18T02:56:28;3.13;;;1.50;;
72547;SDS011;60570;50.848;6.776;2023-02-18T02:58:29;3.58;;;1.60;;
72547;SDS011;60570;50.848;6.776;2023-02-18T02:59:30;2.93;;;1.50;;
72547;SDS011;60570;50.848;6.776;2023-02-18T03:00:36;3.17;;;1.38;;
72547;SDS011;60570;50.848;6.776;2023-02-18T03:03:12;2.22;;;1.17;;
72547;SDS011;60570;50.848;6.776;2023-02-18T03:04:22;2.50;;;1.23;;
72547;SDS011;60570;50.848;6.776;2023-02-18T03:09:16;2.63;;;1.33;;
72547;SDS011;60570;50.848;6.776;2023-02-18T03:10:39;2.28;;;1.20;;
72547;SDS011;60570;50.848;6.776;2023-02-18T03:12:05;2.33;;;1.15;;
72547;SDS011;60570;50.848;6.776;2023-02-18T03:16:42;2.60;;;1.40;;
72547;SDS011;60570;50.848;6.776;2023-02-18T03:17:56;2.35;;;1.00;;
72547;SDS011;60570;50.848;6.776;2023-02-18T03:19:05;2.30;;;1.10;;
72547;SDS011;60570;50.848;6.776;2023-02-18T03:23:10;2.50;;;1.10;;
72547;SDS011;60570;50.848;6.776;2023-02-18T03:24:17;1.92;;;0.90;;
72547;SDS011;60570;50.848;6.776;2023-02-18T03:25:23;2.35;;;0.90;;
72547;SDS011;60570;50.848;6.776;2023-02-18T03:26:24;2.28;;;0.90;;
72547;SDS011;60570;50.848;6.776;2023-02-18T03:27:34;2.00;;;1.00;;
72547;SDS011;60570;50.848;6.776;2023-02-18T03:28:39;1.77;;;0.90;;
72547;SDS011;60570;50.848;6.776;2023-02-18T03:29:40;2.15;;;0.90;;
72547;SDS011;60570;50.848;6.776;2023-02-18T03:30:49;2.17;;;0.90;;
72547;SDS011;60570;50.848;6.776;2023-02-18T03:31:56;1.67;;;0.90;;
72547;SDS011;60570;50.848;6.776;2023-02-18T03:33:02;1.83;;;0.77;;
72547;SDS011;60570;50.848;6.776;2023-02-18T03:34:10;1.70;;;0.80;;
72547;SDS011;60570;50.848;6.776;2023-02-18T03:35:15;2.10;;;0.95;;
72547;SDS011;60570;50.848;6.776;2023-02-18T03:36:17;2.17;;;0.80;;
72547;SDS011;60570;50.848;6.776;2023-02-18T03:37:19;1.42;;;0.77;;
72547;SDS011;60570;50.848;6.776;2023-02-18T03:38:25;2.60;;;0.90;;
72547;SDS011;60570;50.848;6.776;2023-02-18T03:39:28;1.95;;;0.70;;
72547;SDS011;60570;50.848;6.776;2023-02-18T03:40:31;1.52;;;0.75;;
72547;SDS011;60570;50.848;6.776;2023-02-18T03:41:32;1.67;;;0.80;;
72547;SDS011;60570;50.848;6.776;2023-02-18T03:42:34;1.83;;;0.80;;
72547;SDS011;60570;50.848;6.776;2023-02-18T03:43:34;1.25;;;0.60;;
72547;SDS011;60570;50.848;6.776;2023-02-18T03:44:35;1.27;;;0.63;;
72547;SDS011;60570;50.848;6.776;2023-02-18T03:45:35;1.20;;;0.50;;
72547;SDS011;60570;50.848;6.776;2023-02-18T03:46:36;1.40;;;0.60;;
72547;SDS011;60570;50.848;6.776;2023-02-18T03:47:38;1.38;;;0.60;;
72547;SDS011;60570;50.848;6.776;2023-02-18T03:48:39;1.40;;;0.63;;
72547;SDS011;60570;50.848;6.776;2023-02-18T03:49:39;1.27;;;0.50;;
72547;SDS011;60570;50.848;6.776;2023-02-18T03:50:40;1.07;;;0.50;;
72547;SDS011;60570;50.848;6.776;2023-02-18T03:51:40;1.42;;;0.60;;
72547;SDS011;60570;50.848;6.776;2023-02-18T03:52:42;1.48;;;0.60;;
72547;SDS011;60570;50.848;6.776;2023-02-18T03:53:42;1.50;;;0.60;;
72547;SDS011;60570;50.848;6.776;2023-02-18T03:54:42;1.00;;;0.60;;
72547;SDS011;60570;50.848;6.776;2023-02-18T03:55:43;1.40;;;0.60;;
72547;SDS011;60570;50.848;6.776;2023-02-18T03:56:43;1.10;;;0.50;;
72547;SDS011;60570;50.848;6.776;2023-02-18T03:57:44;2.08;;;0.70;;
72547;SDS011;60570;50.848;6.776;2023-02-18T03:58:44;1.13;;;0.50;;
72547;SDS011;60570;50.848;6.776;2023-02-18T03:59:45;1.02;;;0.50;;
72547;SDS011;60570;50.848;6.776;2023-02-18T04:00:45;1.03;;;0.43;;
72547;SDS011;60570;50.848;6.776;2023-02-18T04:01:46;1.02;;;0.45;;
72547;SDS011;60570;50.848;6.776;2023-02-18T04:02:46;1.83;;;0.50;;
72547;SDS011;60570;50.848;6.776;2023-02-18T04:03:47;1.20;;;0.50;;
72547;SDS011;60570;50.848;6.776;2023-02-18T04:04:47;1.70;;;0.40;;
72547;SDS011;60570;50.848;6.776;2023-02-18T04:05:47;1.00;;;0.40;;
72547;SDS011;60570;50.848;6.776;2023-02-18T04:06:48;1.67;;;0.40;;
72547;SDS011;60570;50.848;6.776;2023-02-18T04:07:48;1.00;;;0.40;;
72547;SDS011;60570;50.848;6.776;2023-02-18T04:08:49;1.55;;;0.50;;
72547;SDS011;60570;50.848;6.776;2023-02-18T04:09:50;1.23;;;0.40;;
72547;SDS011;60570;50.848;6.776;2023-02-18T04:10:51;1.02;;;0.50;;
72547;SDS011;60570;50.848;6.776;2023-02-18T04:11:51;0.60;;;0.30;;
72547;SDS011;60570;50.848;6.776;2023-02-18T04:12:52;0.98;;;0.50;;
72547;SDS011;60570;50.848;6.776;2023-02-18T04:13:52;1.27;;;0.50;;
72547;SDS011;60570;50.848;6.776;2023-02-18T04:14:53;0.80;;;0.38;;
72547;SDS011;60570;50.848;6.776;2023-02-18T04:15:53;1.00;;;0.40;;
72547;SDS011;60570;50.848;6.776;2023-02-18T04:16:53;1.40;;;0.40;;
72547;SDS011;60570;50.848;6.776;2023-02-18T04:17:54;0.80;;;0.37;;
72547;SDS011;60570;50.848;6.776;2023-02-18T04:18:54;1.02;;;0.40;;
72547;SDS011;60570;50.848;6.776;2023-02-18T04:19:55;1.10;;;0.40;;
72547;SDS011;60570;50.848;6.776;2023-02-18T04:20:55;0.77;;;0.30;;
72547;SDS011;60570;50.848;6.776;2023-02-18T04:21:56;0.80;;;0.30;;
72547;SDS011;60570;50.848;6.776;2023-02-18T04:22:56;0.90;;;0.40;;
72547;SDS011;60570;50.848;6.776;2023-02-18T04:23:57;0.47;;;0.30;;
72547;SDS011;60570;50.848;6.776;2023-02-18T04:24:57;1.05;;;0.40;;
72547;SDS011;60570;50.848;6.776;2023-02-18T04:25:59;0.40;;;0.20;;
72547;SDS011;60570;50.848;6.776;2023-02-18T04:27:00;0.80;;;0.30;;
72547;SDS011;60570;50.848;6.776;2023-02-18T04:28:00;1.23;;;0.30;;
72547;SDS011;60570;50.848;6.776;2023-02-18T04:29:00;0.70;;;0.30;;
72547;SDS011;60570;50.848;6.776;2023-02-18T04:30:01;0.70;;;0.30;;
72547;SDS011;60570;50.848;6.776;2023-02-18T04:31:03;0.80;;;0.30;;
72547;SDS011;60570;50.848;6.776;2023-02-18T04:32:03;1.70;;;0.30;;
72547;SDS011;60570;50.848;6.776;2023-02-18T04:33:05;0.70;;;0.30;;
72547;SDS011;60570;50.848;6.776;2023-02-18T04:34:06;0.70;;;0.30;;
72547;SDS011;60570;50.848;6.776;2023-02-18T04:35:07;0.93;;;0.37;;
72547;SDS011;60570;50.848;6.776;2023-02-18T04:36:07;1.20;;;0.30;;
72547;SDS011;60570;50.848;6.776;2023-02-18T04:37:09;0.80;;;0.28;;
72547;SDS011;60570;50.848;6.776;2023-02-18T04:38:09;0.50;;;0.27;;
72547;SDS011;60570;50.848;6.776;2023-02-18T04:39:10;0.80;;;0.28;;
72547;SDS011;60570;50.848;6.776;2023-02-18T04:40:11;0.20;;;0.10;;
72547;SDS011;60570;50.848;6.776;2023-02-18T04:41:12;0.50;;;0.22;;
72547;SDS011;60570;50.848;6.776;2023-02-18T04:42:12;0.83;;;0.23;;
72547;SDS011;60570;50.848;6.776;2023-02-18T04:43:13;0.60;;;0.30;;
72547;SDS011;60570;50.848;6.776;2023-02-18T04:44:13;0.90;;;0.20;;
72547;SDS011;60570;50.848;6.776;2023-02-18T04:45:14;0.60;;;0.20;;
72547;SDS011;60570;50.848;6.776;2023-02-18T04:46:14;0.53;;;0.33;;
72547;SDS011;60570;50.848;6.776;2023-02-18T04:47:15;0.55;;;0.20;;
72547;SDS011;60570;50.848;6.776;2023-02-18T04:48:15;0.47;;;0.20;;
72547;SDS011;60570;50.848;6.776;2023-02-18T04:49:16;0.43;;;0.20;;
72547;SDS011;60570;50.848;6.776;2023-02-18T04:50:16;0.60;;;0.20;;
72547;SDS011;60570;50.848;6.776;2023-02-18T04:51:17;0.80;;;0.30;;
72547;SDS011;60570;50.848;6.776;2023-02-18T04:52:18;0.40;;;0.17;;
72547;SDS011;60570;50.848;6.776;2023-02-18T04:53:18;0.57;;;0.20;;
72547;SDS011;60570;50.848;6.776;2023-02-18T04:54:19;0.50;;;0.20;;
72547;SDS011;60570;50.848;6.776;2023-02-18T04:55:19;0.27;;;0.10;;
72547;SDS011;60570;50.848;6.776;2023-02-18T04:56:20;0.30;;;0.10;;
72547;SDS011;60570;50.848;6.776;2023-02-18T04:57:20;0.80;;;0.20;;
72547;SDS011;60570;50.848;6.776;2023-02-18T04:58:21;0.45;;;0.20;;
72547;SDS011;60570;50.848;6.776;2023-02-18T04:59:22;0.40;;;0.20;;
72547;SDS011;60570;50.848;6.776;2023-02-18T05:00:22;0.40;;;0.10;;
72547;SDS011;60570;50.848;6.776;2023-02-18T05:01:23;0.30;;;0.17;;
72547;SDS011;60570;50.848;6.776;2023-02-18T05:02:23;0.40;;;0.13;;
72547;SDS011;60570;50.848;6.776;2023-02-18T05:03:24;0.97;;;0.10;;
72547;SDS011;60570;50.848;6.776;2023-02-18T05:04:24;0.50;;;0.10;;
72547;SDS011;60570;50.848;6.776;2023-02-18T05:05:24;0.50;;;0.20;;
72547;SDS011;60570;50.848;6.776;2023-02-18T05:06:25;0.40;;;0.20;;
72547;SDS011;60570;50.848;6.776;2023-02-18T05:07:25;0.88;;;0.13;;
72547;SDS011;60570;50.848;6.776;2023-02-18T05:08:26;0.90;;;0.20;;
72547;SDS011;60570;50.848;6.776;2023-02-18T05:09:26;1.00;;;0.28;;
72547;SDS011;60570;50.848;6.776;2023-02-18T05:10:27;0.30;;;0.10;;
72547;SDS011;60570;50.848;6.776;2023-02-18T05:11:27;0.30;;;0.10;;
72547;SDS011;60570;50.848;6.776;2023-02-18T05:12:28;0.73;;;0.20;;
72547;SDS011;60570;50.848;6.776;2023-02-18T05:13:28;0.13;;;0.00;;
72547;SDS011;60570;50.848;6.776;2023-02-18T05:14:29;0.70;;;0.20;;
72547;SDS011;60570;50.848;6.776;2023-02-18T05:15:29;0.40;;;0.10;;
72547;SDS011;60570;50.848;6.776;2023-02-18T05:16:29;0.43;;;0.10;;
72547;SDS011;60570;50.848;6.776;2023-02-18T05:17:30;0.85;;;0.20;;
72547;SDS011;60570;50.848;6.776;2023-02-18T05:18:31;0.87;;;0.20;;
72547;SDS011;60570;50.848;6.776;2023-02-18T05:19:32;0.37;;;0.13;;
72547;SDS011;60570;50.848;6.776;2023-02-18T05:20:32;0.40;;;0.20;;
72547;SDS011;60570;50.848;6.776;2023-02-18T05:21:34;0.40;;;0.20;;
72547;SDS011;60570;50.848;6.776;2023-02-18T05:22:34;0.55;;;0.15;;
72547;SDS011;60570;50.848;6.776;2023-02-18T05:23:34;0.50;;;0.10;;
72547;SDS011;60570;50.848;6.776;2023-02-18T05:24:35;0.88;;;0.20;;
72547;SDS011;60570;50.848;6.776;2023-02-18T05:25:35;0.30;;;0.10;;
72547;SDS011;60570;50.848;6.776;2023-02-18T05:26:36;0.27;;;0.10;;
72547;SDS011;60570;50.848;6.776;2023-02-18T05:27:36;0.83;;;0.20;;
72547;SDS011;60570;50.848;6.776;2023-02-18T05:28:37;0.57;;;0.20;;
72547;SDS011;60570;50.848;6.776;2023-02-18T05:29:37;0.50;;;0.10;;
72547;SDS011;60570;50.848;6.776;2023-02-18T05:30:38;0.47;;;0.20;;
72547;SDS011;60570;50.848;6.776;2023-02-18T05:31:39;0.43;;;0.20;;
72547;SDS011;60570;50.848;6.776;2023-02-18T05:32:39;0.52;;;0.20;;
72547;SDS011;60570;50.848;6.776;2023-02-18T05:33:39;0.60;;;0.10;;
72547;SDS011;60570;50.848;6.776;2023-02-18T05:34:40;0.90;;;0.10;;
72547;SDS011;60570;50.848;6.776;2023-02-18T05:35:41;0.28;;;0.20;;
72547;SDS011;60570;50.848;6.776;2023-02-18T05:36:41;0.37;;;0.10;;
72547;SDS011;60570;50.848;6.776;2023-02-18T05:37:42;0.50;;;0.20;;
72547;SDS011;60570;50.848;6.776;2023-02-18T05:38:42;1.30;;;0.10;;
72547;SDS011;60570;50.848;6.776;2023-02-18T05:39:43;0.90;;;0.10;;
72547;SDS011;60570;50.848;6.776;2023-02-18T05:40:44;0.77;;;0.10;;
72547;SDS011;60570;50.848;6.776;2023-02-18T05:41:45;0.17;;;0.10;;
72547;SDS011;60570;50.848;6.776;2023-02-18T05:42:45;0.30;;;0.10;;
72547;SDS011;60570;50.848;6.776;2023-02-18T05:43:45;0.28;;;0.10;;
72547;SDS011;60570;50.848;6.776;2023-02-18T05:45:05;0.20;;;0.10;;
72547;SDS011;60570;50.848;6.776;2023-02-18T05:46:05;0.50;;;0.10;;
72547;SDS011;60570;50.848;6.776;2023-02-18T05:47:07;0.10;;;0.10;;
72547;SDS011;60570;50.848;6.776;2023-02-18T05:48:09;0.10;;;0.10;;
72547;SDS011;60570;50.848;6.776;2023-02-18T05:49:10;0.60;;;0.20;;
72547;SDS011;60570;50.848;6.776;2023-02-18T05:50:11;0.30;;;0.10;;
72547;SDS011;60570;50.848;6.776;2023-02-18T05:51:11;1.30;;;0.10;;
72547;SDS011;60570;50.848;6.776;2023-02-18T05:52:11;1.10;;;0.10;;
72547;SDS011;60570;50.848;6.776;2023-02-18T05:53:12;0.50;;;0.10;;
72547;SDS011;60570;50.848;6.776;2023-02-18T05:54:12;0.47;;;0.20;;
72547;SDS011;60570;50.848;6.776;2023-02-18T05:55:13;1.20;;;0.10;;
72547;SDS011;60570;50.848;6.776;2023-02-18T05:56:13;0.57;;;0.10;;
72547;SDS011;60570;50.848;6.776;2023-02-18T05:57:14;0.20;;;0.10;;
72547;SDS011;60570;50.848;6.776;2023-02-18T05:58:14;0.17;;;0.10;;
72547;SDS011;60570;50.848;6.776;2023-02-18T05:59:16;0.20;;;0.10;;
72547;SDS011;60570;50.848;6.776;2023-02-18T06:00:17;0.45;;;0.10;;
72547;SDS011;60570;50.848;6.776;2023-02-18T06:01:17;0.80;;;0.10;;
72547;SDS011;60570;50.848;6.776;2023-02-18T06:02:19;0.30;;;0.10;;
72547;SDS011;60570;50.848;6.776;2023-02-18T06:03:19;0.57;;;0.17;;
72547;SDS011;60570;50.848;6.776;2023-02-18T06:04:20;0.20;;;0.10;;
72547;SDS011;60570;50.848;6.776;2023-02-18T06:05:20;0.32;;;0.10;;
72547;SDS011;60570;50.848;6.776;2023-02-18T06:06:21;0.57;;;0.17;;
72547;SDS011;60570;50.848;6.776;2023-02-18T06:07:22;0.20;;;0.10;;
72547;SDS011;60570;50.848;6.776;2023-02-18T06:08:22;0.90;;;0.10;;
72547;SDS011;60570;50.848;6.776;2023-02-18T06:09:23;0.87;;;0.10;;
72547;SDS011;60570;50.848;6.776;2023-02-18T06:10:23;0.82;;;0.20;;
72547;SDS011;60570;50.848;6.776;2023-02-18T06:11:24;0.40;;;0.10;;
72547;SDS011;60570;50.848;6.776;2023-02-18T06:12:24;0.38;;;0.10;;
72547;SDS011;60570;50.848;6.776;2023-02-18T06:13:25;0.20;;;0.00;;
72547;SDS011;60570;50.848;6.776;2023-02-18T06:14:25;0.63;;;0.20;;
72547;SDS011;60570;50.848;6.776;2023-02-18T06:15:26;0.30;;;0.10;;
72547;SDS011;60570;50.848;6.776;2023-02-18T06:16:27;0.27;;;0.10;;
72547;SDS011;60570;50.848;6.776;2023-02-18T06:17:27;0.20;;;0.10;;
72547;SDS011;60570;50.848;6.776;2023-02-18T06:18:28;0.30;;;0.10;;
72547;SDS011;60570;50.848;6.776;2023-02-18T06:19:29;0.10;;;0.10;;
72547;SDS011;60570;50.848;6.776;2023-02-18T06:20:29;0.40;;;0.10;;
72547;SDS011;60570;50.848;6.776;2023-02-18T06:21:30;1.10;;;0.20;;
72547;SDS011;60570;50.848;6.776;2023-02-18T06:22:30;0.30;;;0.10;;
72547;SDS011;60570;50.848;6.776;2023-02-18T06:23:31;0.30;;;0.10;;
72547;SDS011;60570;50.848;6.776;2023-02-18T06:24:31;0.10;;;0.00;;
72547;SDS011;60570;50.848;6.776;2023-02-18T06:25:32;0.40;;;0.10;;
72547;SDS011;60570;50.848;6.776;2023-02-18T06:26:32;0.23;;;0.10;;
72547;SDS011;60570;50.848;6.776;2023-02-18T06:27:33;0.28;;;0.10;;
72547;SDS011;60570;50.848;6.776;2023-02-18T06:28:33;0.30;;;0.10;;
72547;SDS011;60570;50.848;6.776;2023-02-18T06:29:34;0.50;;;0.10;;
72547;SDS011;60570;50.848;6.776;2023-02-18T06:30:35;0.27;;;0.10;;
72547;SDS011;60570;50.848;6.776;2023-02-18T06:31:36;0.30;;;0.10;;
72547;SDS011;60570;50.848;6.776;2023-02-18T06:32:36;0.20;;;0.00;;
72547;SDS011;60570;50.848;6.776;2023-02-18T06:33:37;0.93;;;0.10;;
72547;SDS011;60570;50.848;6.776;2023-02-18T06:34:37;0.10;;;0.03;;
72547;SDS011;60570;50.848;6.776;2023-02-18T06:35:38;0.20;;;0.10;;
72547;SDS011;60570;50.848;6.776;2023-02-18T06:36:38;0.20;;;0.10;;
72547;SDS011;60570;50.848;6.776;2023-02-18T06:37:39;1.13;;;0.13;;
72547;SDS011;60570;50.848;6.776;2023-02-18T06:38:40;0.30;;;0.10;;
72547;SDS011;60570;50.848;6.776;2023-02-18T06:39:42;0.88;;;0.17;;
72547;SDS011;60570;50.848;6.776;2023-02-18T06:40:44;0.20;;;0.10;;
72547;SDS011;60570;50.848;6.776;2023-02-18T06:41:46;0.30;;;0.10;;
72547;SDS011;60570;50.848;6.776;2023-02-18T06:42:46;0.37;;;0.10;;
72547;SDS011;60570;50.848;6.776;2023-02-18T06:43:46;0.20;;;0.10;;
72547;SDS011;60570;50.848;6.776;2023-02-18T06:44:47;0.30;;;0.10;;
72547;SDS011;60570;50.848;6.776;2023-02-18T06:45:48;0.50;;;0.10;;
72547;SDS011;60570;50.848;6.776;2023-02-18T06:46:48;0.53;;;0.10;;
72547;SDS011;60570;50.848;6.776;2023-02-18T06:47:48;0.40;;;0.10;;